createdAt,value
2018-12-29T00:00:46.119Z,34.87
2018-12-29T00:03:15.519Z,32.57
2018-12-29T00:05:44.947Z,36.73
2018-12-29T00:08:14.331Z,37.73
2018-12-29T00:10:43.729Z,31.07
2018-12-29T00:13:13.222Z,36.87
2018-12-29T00:15:42.613Z,34.13
2018-12-29T00:18:11.981Z,31.53
2018-12-29T00:20:41.415Z,34.13
2018-12-29T00:23:10.802Z,31.90
2018-12-29T00:25:40.201Z,31.67
2018-12-29T00:28:09.685Z,33.23
2018-12-29T00:30:39.070Z,35.50
2018-12-29T00:33:08.468Z,31.40
2018-12-29T00:35:38.321Z,31.10
2018-12-29T00:38:07.753Z,35.03
2018-12-29T00:40:37.371Z,32.98
2018-12-29T00:43:07.015Z,33.73
2018-12-29T00:45:36.422Z,32.15
2018-12-29T00:48:09.176Z,30.10
2018-12-29T00:50:38.968Z,33.73
2018-12-29T00:53:08.336Z,31.10
2018-12-29T00:55:37.952Z,35.17
2018-12-29T00:58:07.638Z,36.58
2018-12-29T01:00:37.183Z,32.07
2018-12-29T01:03:06.572Z,34.05
2018-12-29T01:05:36.042Z,28.77
2018-12-29T01:08:05.444Z,30.57
2018-12-29T01:10:34.906Z,31.60
2018-12-29T01:13:04.301Z,31.20
2018-12-29T01:15:33.724Z,28.53
2018-12-29T01:18:03.195Z,26.53
2018-12-29T01:20:32.951Z,26.00
2018-12-29T01:23:02.578Z,29.87
2018-12-29T01:25:32.004Z,26.50
2018-12-29T01:28:01.519Z,31.10
2018-12-29T01:30:30.921Z,25.50
2018-12-29T01:33:00.317Z,27.73
2018-12-29T01:35:29.770Z,27.37
2018-12-29T01:37:59.749Z,26.12
2018-12-29T01:40:29.730Z,29.57
2018-12-29T01:43:00.123Z,28.30
2018-12-29T01:45:29.717Z,25.37
2018-12-29T01:47:59.693Z,26.95
2018-12-29T01:50:29.776Z,31.25
2018-12-29T01:52:59.967Z,26.45
2018-12-29T01:55:29.654Z,25.27
2018-12-29T01:57:59.686Z,26.42
2018-12-29T02:00:29.675Z,25.92
2018-12-29T02:02:59.685Z,27.65
2018-12-29T02:05:29.805Z,28.87
2018-12-29T02:07:59.613Z,32.53
2018-12-29T02:10:29.733Z,34.50
2018-12-29T02:12:59.713Z,30.50
2018-12-29T02:15:29.721Z,36.03
2018-12-29T02:17:59.653Z,30.23
2018-12-29T02:20:30.076Z,32.55
2018-12-29T02:22:59.755Z,32.83
2018-12-29T02:25:29.942Z,32.43
2018-12-29T02:27:59.790Z,32.03
2018-12-29T02:30:29.759Z,32.70
2018-12-29T02:32:59.745Z,35.90
2018-12-29T02:35:29.986Z,35.23
2018-12-29T02:37:59.717Z,34.45
2018-12-29T02:40:29.789Z,28.92
2018-12-29T02:42:59.829Z,29.25
2018-12-29T02:45:33.266Z,32.33
2018-12-29T02:48:01.066Z,29.47
2018-12-29T02:50:30.638Z,31.47
2018-12-29T02:53:01.108Z,34.77
2018-12-29T02:55:30.644Z,34.67
2018-12-29T02:58:00.191Z,33.73
2018-12-29T03:00:29.731Z,34.48
2018-12-29T03:02:59.699Z,38.20
2018-12-29T03:05:29.837Z,39.13
2018-12-29T03:07:59.716Z,38.55
2018-12-29T03:10:29.742Z,36.63
2018-12-29T03:12:59.760Z,38.35
2018-12-29T03:15:29.732Z,35.60
2018-12-29T03:17:59.734Z,39.65
2018-12-29T03:20:29.855Z,38.80
2018-12-29T03:22:59.756Z,42.33
2018-12-29T03:25:29.814Z,39.23
2018-12-29T03:27:59.867Z,34.98
2018-12-29T03:30:29.735Z,37.75
2018-12-29T03:32:59.969Z,36.05
2018-12-29T03:35:29.944Z,36.63
2018-12-29T03:37:59.744Z,36.85
2018-12-29T03:40:29.893Z,34.95
2018-12-29T03:42:59.973Z,36.65
2018-12-29T03:45:29.774Z,32.55
2018-12-29T03:47:59.748Z,35.50
2018-12-29T03:50:29.903Z,30.68
2018-12-29T03:52:59.770Z,35.08
2018-12-29T03:55:29.839Z,32.23
2018-12-29T03:57:59.826Z,28.65
2018-12-29T04:00:29.796Z,33.83
2018-12-29T04:02:59.788Z,30.37
2018-12-29T04:05:29.933Z,25.97
2018-12-29T04:07:59.874Z,30.75
2018-12-29T04:10:29.810Z,33.42
2018-12-29T04:13:01.430Z,29.98
2018-12-29T04:15:31.155Z,23.60
2018-12-29T04:18:00.585Z,25.67
2018-12-29T04:20:30.045Z,23.13
2018-12-29T04:22:59.849Z,21.82
2018-12-29T04:25:29.839Z,20.10
2018-12-29T04:28:00.010Z,20.82
2018-12-29T04:30:29.895Z,23.25
2018-12-29T04:32:59.890Z,22.62
2018-12-29T04:35:30.124Z,20.40
2018-12-29T04:37:59.893Z,23.07
2018-12-29T04:40:29.889Z,20.50
2018-12-29T04:43:00.454Z,24.57
2018-12-29T04:45:29.894Z,23.03
2018-12-29T04:47:59.909Z,21.00
2018-12-29T04:50:30.092Z,27.73
2018-12-29T04:52:59.938Z,22.60
2018-12-29T04:55:29.912Z,24.32
2018-12-29T04:58:00.375Z,24.00
2018-12-29T05:00:29.927Z,22.98
2018-12-29T05:02:59.916Z,23.57
2018-12-29T05:05:30.059Z,21.82
2018-12-29T05:07:59.915Z,23.30
2018-12-29T05:10:29.932Z,23.12
2018-12-29T05:12:59.984Z,21.65
2018-12-29T05:15:29.928Z,17.80
2018-12-29T05:17:59.916Z,20.50
2018-12-29T05:20:30.115Z,19.27
2018-12-29T05:22:59.963Z,17.67
2018-12-29T05:25:29.938Z,19.87
2018-12-29T05:28:00.154Z,15.20
2018-12-29T05:30:29.995Z,13.78
2018-12-29T05:32:59.942Z,16.27
2018-12-29T05:35:30.087Z,15.78
2018-12-29T05:37:59.954Z,17.48
2018-12-29T05:40:29.968Z,14.98
2018-12-29T05:43:00.020Z,14.95
2018-12-29T05:45:30.019Z,15.38
2018-12-29T05:47:59.969Z,16.53
2018-12-29T05:50:30.152Z,15.83
2018-12-29T05:53:00.018Z,18.45
2018-12-29T05:55:29.981Z,15.75
2018-12-29T05:58:00.148Z,17.92
2018-12-29T06:00:29.999Z,18.35
2018-12-29T06:03:00.133Z,16.35
2018-12-29T06:05:30.172Z,16.30
2018-12-29T06:08:00.011Z,19.17
2018-12-29T06:10:30.039Z,16.77
2018-12-29T06:13:00.069Z,17.82
2018-12-29T06:15:30.036Z,17.45
2018-12-29T06:18:00.025Z,16.82
2018-12-29T06:20:30.077Z,16.70
2018-12-29T06:23:00.091Z,20.00
2018-12-29T06:25:30.059Z,17.73
2018-12-29T06:28:00.201Z,17.07
2018-12-29T06:30:30.016Z,17.07
2018-12-29T06:33:00.036Z,16.15
2018-12-29T06:35:30.098Z,22.30
2018-12-29T06:38:00.032Z,19.92
2018-12-29T06:40:30.019Z,20.20
2018-12-29T06:43:00.128Z,19.17
2018-12-29T06:45:30.052Z,18.05
2018-12-29T06:48:00.059Z,20.10
2018-12-29T06:50:30.239Z,23.95
2018-12-29T06:53:00.066Z,20.97
2018-12-29T06:55:30.108Z,21.75
2018-12-29T06:58:00.173Z,24.90
2018-12-29T07:00:30.068Z,26.93
2018-12-29T07:03:00.101Z,29.10
2018-12-29T07:05:30.106Z,25.77
2018-12-29T07:08:00.322Z,29.35
2018-12-29T07:10:30.113Z,27.50
2018-12-29T07:13:00.828Z,31.10
2018-12-29T07:15:30.255Z,28.50
2018-12-29T07:18:00.198Z,28.95
2018-12-29T07:20:30.137Z,28.60
2018-12-29T07:23:00.169Z,26.75
2018-12-29T07:25:30.091Z,29.10
2018-12-29T07:28:00.293Z,29.67
2018-12-29T07:30:30.126Z,31.85
2018-12-29T07:33:00.140Z,30.48
2018-12-29T07:35:30.553Z,32.15
2018-12-29T07:38:00.111Z,29.57
2018-12-29T07:40:30.091Z,34.92
2018-12-29T07:43:00.164Z,28.57
2018-12-29T07:45:30.104Z,34.98
2018-12-29T07:48:00.169Z,36.05
2018-12-29T07:50:30.265Z,39.18
2018-12-29T07:53:00.140Z,35.85
2018-12-29T07:55:30.126Z,31.90
2018-12-29T07:58:00.668Z,37.53
2018-12-29T08:00:30.148Z,31.67
2018-12-29T08:03:00.191Z,38.55
2018-12-29T08:05:30.317Z,35.08
2018-12-29T08:08:00.159Z,37.20
2018-12-29T08:10:30.179Z,40.17
2018-12-29T08:13:00.264Z,35.95
2018-12-29T08:15:30.144Z,34.50
2018-12-29T08:18:00.156Z,43.48
2018-12-29T08:20:30.303Z,36.03
2018-12-29T08:23:00.159Z,34.55
2018-12-29T08:25:30.146Z,35.13
2018-12-29T08:28:00.296Z,39.27
2018-12-29T08:30:30.153Z,32.30
2018-12-29T08:33:00.234Z,33.50
2018-12-29T08:35:30.329Z,30.62
2018-12-29T08:38:00.179Z,34.90
2018-12-29T08:40:30.177Z,29.00
2018-12-29T08:43:00.381Z,32.80
2018-12-29T08:45:30.156Z,30.65
2018-12-29T08:48:00.182Z,25.88
2018-12-29T08:50:30.377Z,25.62
2018-12-29T08:53:00.189Z,28.07
2018-12-29T08:55:30.171Z,25.82
2018-12-29T08:58:00.228Z,26.30
2018-12-29T09:00:30.172Z,24.70
2018-12-29T09:03:00.181Z,26.23
2018-12-29T09:05:30.379Z,24.60
2018-12-29T09:08:00.213Z,26.30
2018-12-29T09:10:30.218Z,26.00
2018-12-29T09:13:00.407Z,27.65
2018-12-29T09:15:30.217Z,27.15
2018-12-29T09:18:00.314Z,25.20
2018-12-29T09:20:30.323Z,25.77
2018-12-29T09:23:00.224Z,24.50
2018-12-29T09:25:30.303Z,23.32
2018-12-29T09:28:00.279Z,24.80
2018-12-29T09:30:30.271Z,28.47
2018-12-29T09:33:00.242Z,26.33
2018-12-29T09:35:30.370Z,28.47
2018-12-29T09:38:00.239Z,23.67
2018-12-29T09:40:30.280Z,24.67
2018-12-29T09:43:00.323Z,29.67
2018-12-29T09:45:30.270Z,32.17
2018-12-29T09:48:00.397Z,27.90
2018-12-29T09:50:30.671Z,29.70
2018-12-29T09:53:00.258Z,31.48
2018-12-29T09:55:30.238Z,32.93
2018-12-29T09:58:00.662Z,29.15
2018-12-29T10:00:30.265Z,29.55
2018-12-29T10:03:00.243Z,31.68
2018-12-29T10:05:30.444Z,30.92
2018-12-29T10:08:00.265Z,32.83
2018-12-29T10:10:30.238Z,33.38
2018-12-29T10:13:00.282Z,35.17
2018-12-29T10:15:30.330Z,30.85
2018-12-29T10:18:00.284Z,33.50
2018-12-29T10:20:30.446Z,38.90
2018-12-29T10:23:00.449Z,37.17
2018-12-29T10:25:30.274Z,35.40
2018-12-29T10:28:00.428Z,29.52
2018-12-29T10:30:30.253Z,28.25
2018-12-29T10:33:00.268Z,35.13
2018-12-29T10:35:30.409Z,32.83
2018-12-29T10:38:00.283Z,34.25
2018-12-29T10:40:30.255Z,26.55
2018-12-29T10:43:00.393Z,31.60
2018-12-29T10:45:30.261Z,33.30
2018-12-29T10:48:00.332Z,27.80
2018-12-29T10:50:30.455Z,31.97
2018-12-29T10:53:00.335Z,31.25
2018-12-29T10:55:30.299Z,30.48
2018-12-29T10:58:00.450Z,32.03
2018-12-29T11:00:34.969Z,31.82
2018-12-29T11:03:01.507Z,30.23
2018-12-29T11:05:31.189Z,32.20
2018-12-29T11:08:00.643Z,31.17
2018-12-29T11:10:30.404Z,27.30
2018-12-29T11:13:00.495Z,27.17
2018-12-29T11:15:30.325Z,30.00
2018-12-29T11:18:00.333Z,28.80
2018-12-29T11:20:30.418Z,28.17
2018-12-29T11:23:00.388Z,30.62
2018-12-29T11:25:30.453Z,30.72
2018-12-29T11:28:00.630Z,26.97
2018-12-29T11:30:30.338Z,27.60
2018-12-29T11:33:00.330Z,29.07
2018-12-29T11:35:30.477Z,27.22
2018-12-29T11:38:00.409Z,31.52
2018-12-29T11:40:30.331Z,30.97
2018-12-29T11:43:00.470Z,32.10
2018-12-29T11:45:30.373Z,32.85
2018-12-29T11:48:00.373Z,28.23
2018-12-29T11:50:30.505Z,28.42
2018-12-29T11:53:00.359Z,30.57
2018-12-29T11:55:30.381Z,29.32
2018-12-29T11:58:00.599Z,30.55
2018-12-29T12:00:30.434Z,33.08
2018-12-29T12:03:00.326Z,35.10
2018-12-29T12:05:30.500Z,34.05
2018-12-29T12:08:00.335Z,34.08
2018-12-29T12:10:30.382Z,33.57
2018-12-29T12:13:00.414Z,35.08
2018-12-29T12:15:30.369Z,34.75
2018-12-29T12:18:00.621Z,37.73
2018-12-29T12:20:30.845Z,39.30
2018-12-29T12:23:00.418Z,43.25
2018-12-29T12:25:30.419Z,45.80
2018-12-29T12:28:00.453Z,47.58
2018-12-29T12:30:39.199Z,45.27
2018-12-29T12:33:09.245Z,45.70
2018-12-29T12:35:39.072Z,50.78
2018-12-29T12:38:08.841Z,50.37
2018-12-29T12:40:38.303Z,44.55
2018-12-29T12:43:10.852Z,45.20
2018-12-29T12:45:40.558Z,45.80
2018-12-29T12:48:10.006Z,44.43
2018-12-29T12:50:39.587Z,46.00
2018-12-29T12:53:09.120Z,43.50
2018-12-29T12:55:38.851Z,44.27
2018-12-29T12:58:10.116Z,39.90
2018-12-29T13:00:39.917Z,40.60
2018-12-29T13:03:12.565Z,40.23
2018-12-29T13:05:42.136Z,43.63
2018-12-29T13:08:11.533Z,43.77
2018-12-29T13:10:40.967Z,48.23
2018-12-29T13:13:10.482Z,44.33
2018-12-29T13:15:39.929Z,42.10
2018-12-29T13:18:13.065Z,44.57
2018-12-29T13:20:42.758Z,44.47
2018-12-29T13:23:12.263Z,42.67
2018-12-29T13:25:41.736Z,44.43
2018-12-29T13:28:11.217Z,44.20
2018-12-29T13:30:40.621Z,41.77
2018-12-29T13:33:10.235Z,42.97
2018-12-29T13:35:39.831Z,47.67
2018-12-29T13:38:09.237Z,43.17
2018-12-29T13:40:38.605Z,44.77
2018-12-29T13:43:08.147Z,42.27
2018-12-29T13:45:37.542Z,45.10
2018-12-29T13:48:07.101Z,47.63
2018-12-29T13:50:36.596Z,47.53
2018-12-29T13:53:06.244Z,48.40
2018-12-29T13:55:35.615Z,44.70
2018-12-29T13:58:05.170Z,44.40
2018-12-29T14:00:34.573Z,46.07
2018-12-29T14:03:04.002Z,43.07
2018-12-29T14:05:33.549Z,44.70
2018-12-29T14:08:02.943Z,46.80
2018-12-29T14:10:32.313Z,41.87
2018-12-29T14:13:01.897Z,48.17
2018-12-29T14:15:31.476Z,50.23
2018-12-29T14:18:00.862Z,43.57
2018-12-29T14:20:31.367Z,44.87
2018-12-29T14:23:00.788Z,43.80
2018-12-29T14:25:30.446Z,46.02
2018-12-29T14:28:00.653Z,47.05
2018-12-29T14:30:30.494Z,46.13
2018-12-29T14:33:00.506Z,45.38
2018-12-29T14:35:30.678Z,46.85
2018-12-29T14:38:00.651Z,46.67
2018-12-29T14:40:30.460Z,39.40
2018-12-29T14:43:00.555Z,44.95
2018-12-29T14:45:30.476Z,47.08
2018-12-29T14:48:00.497Z,45.35
2018-12-29T14:50:30.660Z,42.78
2018-12-29T14:53:00.504Z,44.73
2018-12-29T14:55:30.483Z,45.85
2018-12-29T14:58:00.600Z,43.92
2018-12-29T15:00:30.546Z,42.30
2018-12-29T15:03:00.509Z,47.27
2018-12-29T15:05:30.635Z,45.12
2018-12-29T15:08:00.698Z,45.20
2018-12-29T15:10:30.560Z,43.00
2018-12-29T15:13:00.603Z,41.30
2018-12-29T15:15:30.540Z,43.25
2018-12-29T15:18:00.556Z,38.08
2018-12-29T15:20:31.493Z,41.77
2018-12-29T15:23:01.178Z,39.97
2018-12-29T15:25:30.623Z,42.73
2018-12-29T15:28:00.651Z,38.63
2018-12-29T15:30:30.554Z,36.23
2018-12-29T15:33:00.534Z,40.38
2018-12-29T15:35:30.620Z,36.75
2018-12-29T15:38:00.546Z,36.93
2018-12-29T15:40:30.911Z,37.83
2018-12-29T15:43:00.606Z,34.80
2018-12-29T15:45:30.584Z,31.10
2018-12-29T15:48:00.603Z,35.20
2018-12-29T15:50:30.724Z,32.23
2018-12-29T15:53:00.560Z,31.37
2018-12-29T15:55:30.550Z,38.35
2018-12-29T15:58:00.749Z,31.33
2018-12-29T16:00:30.563Z,30.05
2018-12-29T16:03:02.172Z,31.27
2018-12-29T16:05:31.733Z,31.13
2018-12-29T16:08:01.126Z,29.97
2018-12-29T16:10:30.652Z,26.87
2018-12-29T16:13:00.739Z,30.65
2018-12-29T16:15:30.569Z,28.12
2018-12-29T16:18:00.628Z,26.23
2018-12-29T16:20:30.998Z,27.37
2018-12-29T16:23:00.578Z,26.87
2018-12-29T16:25:30.619Z,26.00
2018-12-29T16:28:01.045Z,25.62
2018-12-29T16:30:30.795Z,24.30
2018-12-29T16:33:00.633Z,26.80
2018-12-29T16:35:30.755Z,27.00
2018-12-29T16:38:00.658Z,26.25
2018-12-29T16:40:30.642Z,23.60
2018-12-29T16:43:00.818Z,24.50
2018-12-29T16:45:30.587Z,24.05
2018-12-29T16:48:00.631Z,23.18
2018-12-29T16:50:30.724Z,24.45
2018-12-29T16:53:00.661Z,23.57
2018-12-29T16:55:30.606Z,24.50
2018-12-29T16:58:00.836Z,23.32
2018-12-29T17:00:30.663Z,23.12
2018-12-29T17:03:00.648Z,23.77
2018-12-29T17:05:30.699Z,22.05
2018-12-29T17:08:00.650Z,23.05
2018-12-29T17:10:30.650Z,24.23
2018-12-29T17:13:00.820Z,26.27
2018-12-29T17:15:30.696Z,23.38
2018-12-29T17:18:00.804Z,23.12
2018-12-29T17:20:30.729Z,22.10
2018-12-29T17:23:00.717Z,20.82
2018-12-29T17:25:30.740Z,22.32
2018-12-29T17:28:00.814Z,22.55
2018-12-29T17:30:30.643Z,20.95
2018-12-29T17:33:00.642Z,21.12
2018-12-29T17:35:30.723Z,19.70
2018-12-29T17:38:00.714Z,22.13
2018-12-29T17:40:30.680Z,20.05
2018-12-29T17:43:00.706Z,20.97
2018-12-29T17:45:30.720Z,21.45
2018-12-29T17:48:00.767Z,21.70
2018-12-29T17:50:30.715Z,22.17
2018-12-29T17:53:00.695Z,21.55
2018-12-29T17:55:30.674Z,20.02
2018-12-29T17:58:01.339Z,22.17
2018-12-29T18:00:33.758Z,20.73
2018-12-29T18:03:03.192Z,19.13
2018-12-29T18:05:32.635Z,19.25
2018-12-29T18:08:02.169Z,19.77
2018-12-29T18:10:31.928Z,20.07
2018-12-29T18:13:01.453Z,21.03
2018-12-29T18:15:30.841Z,19.93
2018-12-29T18:18:01.448Z,18.98
2018-12-29T18:20:31.418Z,18.50
2018-12-29T18:23:04.440Z,17.90
2018-12-29T18:25:34.152Z,19.87
2018-12-29T18:28:05.261Z,17.97
2018-12-29T18:30:34.974Z,18.33
2018-12-29T18:33:04.657Z,17.23
2018-12-29T18:35:34.452Z,17.20
2018-12-29T18:38:08.766Z,18.20
2018-12-29T18:40:38.625Z,15.67
2018-12-29T18:43:08.579Z,17.90
2018-12-29T18:45:38.334Z,17.20
2018-12-29T18:48:08.612Z,14.87
2018-12-29T18:50:38.452Z,15.28
2018-12-29T18:53:08.200Z,14.47
2018-12-29T18:55:40.757Z,15.93
2018-12-29T18:58:10.317Z,17.10
2018-12-29T19:00:40.338Z,15.15
2018-12-29T19:03:09.835Z,15.83
2018-12-29T19:05:42.849Z,15.70
2018-12-29T19:08:12.960Z,16.93
2018-12-29T19:10:44.519Z,15.35
2018-12-29T19:13:14.386Z,15.67
2018-12-29T19:15:44.239Z,14.53
2018-12-29T19:18:14.006Z,15.03
2018-12-29T19:20:43.772Z,14.43
2018-12-29T19:23:13.816Z,12.63
2018-12-29T19:25:43.331Z,12.43
2018-12-29T19:28:13.673Z,12.03
2018-12-29T19:30:43.090Z,12.67
2018-12-29T19:33:13.100Z,11.78
2018-12-29T19:35:42.743Z,11.37
2018-12-29T19:38:12.874Z,11.68
2018-12-29T19:40:42.511Z,11.53
2018-12-29T19:43:12.722Z,10.53
2018-12-29T19:45:42.183Z,11.23
2018-12-29T19:48:11.599Z,11.30
2018-12-29T19:50:41.422Z,10.13
2018-12-29T19:53:11.431Z,8.77
2018-12-29T19:55:41.107Z,8.60
2018-12-29T19:58:11.249Z,6.85
2018-12-29T20:00:40.766Z,6.27
2018-12-29T20:03:11.343Z,6.50
2018-12-29T20:05:41.376Z,5.73
2018-12-29T20:08:10.911Z,4.25
2018-12-29T20:10:40.374Z,4.73
2018-12-29T20:13:10.174Z,4.83
2018-12-29T20:15:39.849Z,5.87
2018-12-29T20:18:12.236Z,4.13
2018-12-29T20:20:41.693Z,4.83
2018-12-29T20:23:11.316Z,3.90
2018-12-29T20:25:40.848Z,2.23
2018-12-29T20:28:10.613Z,4.23
2018-12-29T20:30:40.185Z,2.53
2018-12-29T20:33:09.663Z,3.37
2018-12-29T20:35:39.614Z,3.47
2018-12-29T20:38:09.086Z,2.70
2018-12-29T20:40:38.482Z,4.13
2018-12-29T20:43:08.160Z,4.07
2018-12-29T20:45:37.610Z,2.27
2018-12-29T20:48:07.334Z,3.40
2018-12-29T20:50:37.094Z,4.37
2018-12-29T20:53:06.459Z,3.60
2018-12-29T20:55:35.834Z,2.53
2018-12-29T20:58:05.580Z,3.00
2018-12-29T21:00:35.018Z,2.47
2018-12-29T21:03:04.594Z,2.37
2018-12-29T21:05:34.112Z,3.27
2018-12-29T21:08:03.692Z,3.03
2018-12-29T21:10:33.198Z,2.07
2018-12-29T21:13:02.986Z,2.43
2018-12-29T21:15:32.436Z,3.20
2018-12-29T21:18:01.971Z,3.03
2018-12-29T21:20:31.425Z,2.03
2018-12-29T21:23:01.087Z,4.57
2018-12-29T21:25:31.104Z,3.35
2018-12-29T21:28:02.879Z,3.83
2018-12-29T21:30:32.296Z,2.60
2018-12-29T21:33:02.532Z,1.87
2018-12-29T21:35:32.720Z,5.00
2018-12-29T21:38:02.196Z,2.60
2018-12-29T21:40:31.658Z,2.47
2018-12-29T21:43:01.190Z,3.47
2018-12-29T21:45:30.981Z,2.22
2018-12-29T21:48:01.072Z,2.20
2018-12-29T21:50:31.191Z,2.12
2018-12-29T21:53:00.993Z,3.98
2018-12-29T21:55:30.922Z,3.12
2018-12-29T21:58:01.138Z,2.33
2018-12-29T22:00:30.956Z,2.60
2018-12-29T22:03:01.023Z,2.40
2018-12-29T22:05:31.161Z,3.55
2018-12-29T22:08:01.197Z,3.83
2018-12-29T22:10:30.918Z,3.10
2018-12-29T22:13:00.965Z,1.75
2018-12-29T22:15:31.020Z,2.12
2018-12-29T22:18:00.961Z,1.40
2018-12-29T22:20:33.391Z,1.17
2018-12-29T22:23:02.191Z,1.70
2018-12-29T22:25:31.603Z,2.30
2018-12-29T22:28:01.251Z,2.50
2018-12-29T22:30:31.091Z,2.22
2018-12-29T22:33:01.103Z,3.30
2018-12-29T22:35:31.137Z,3.95
2018-12-29T22:38:00.993Z,3.67
2018-12-29T22:40:31.353Z,4.50
2018-12-29T22:43:03.400Z,5.47
2018-12-29T22:45:32.853Z,3.50
2018-12-29T22:48:02.316Z,6.07
2018-12-29T22:50:32.073Z,5.00
2018-12-29T22:53:01.463Z,5.17
2018-12-29T22:55:30.968Z,3.67
2018-12-29T22:58:08.396Z,4.75
2018-12-29T23:00:39.667Z,8.00
2018-12-29T23:03:09.275Z,5.10
2018-12-29T23:05:38.847Z,7.30
2018-12-29T23:08:08.257Z,6.27
2018-12-29T23:10:37.967Z,6.77
2018-12-29T23:13:08.109Z,13.83
2018-12-29T23:15:37.586Z,9.97
2018-12-29T23:18:07.370Z,11.20
2018-12-29T23:20:37.406Z,11.33
2018-12-29T23:23:06.811Z,13.98
2018-12-29T23:25:36.207Z,16.77
2018-12-29T23:28:05.742Z,25.23
2018-12-29T23:30:35.242Z,16.40
2018-12-29T23:33:04.801Z,19.13
2018-12-29T23:35:34.420Z,16.50
2018-12-29T23:38:04.234Z,18.93
2018-12-29T23:40:33.636Z,18.47
2018-12-29T23:43:03.224Z,21.13
2018-12-29T23:45:33.017Z,17.13
2018-12-29T23:48:02.696Z,18.03
2018-12-29T23:50:32.169Z,18.07
2018-12-29T23:53:01.871Z,18.43
2018-12-29T23:55:31.617Z,14.37
2018-12-29T23:58:01.109Z,12.00
